Time;durP1;ratioP1;P1;durP2;ratioP2;P2;SDS_P1;SDS_P2;PMS_P1;PMS_P2;Temp;Humidity;BMP_temperature;BMP_pressure;BME280_temperature;BME280_humidity;BME280_pressure;Samples;Min_cycle;Max_cycle;Signal;HPM_P1;HPM_P2
2023/04/11 00:00:26;;;;;;;28.17;4.47;;;;;;;15.39;65.02;100888.09;5047193;28;20032;-68
2023/04/11 00:02:53;;;;;;;36.40;4.83;;;;;;;15.51;64.33;100888.63;5047042;28;20021;-68
2023/04/11 00:05:19;;;;;;;31.07;3.77;;;;;;;15.64;62.50;100881.25;5047313;28;20049;-68
2023/04/11 00:07:44;;;;;;;24.87;3.93;;;;;;;15.56;63.21;100886.72;5048885;28;20124;-68
2023/04/11 00:10:10;;;;;;;24.93;3.70;;;;;;;15.22;63.71;100892.97;5047786;28;20025;-68
2023/04/11 00:12:35;;;;;;;28.43;4.07;;;;;;;15.47;62.45;100884.34;5047393;28;20108;-68
2023/04/11 00:15:01;;;;;;;26.83;4.23;;;;;;;15.70;59.58;100881.91;5047538;28;20119;-68
2023/04/11 00:17:30;;;;;;;27.63;3.83;;;;;;;14.83;64.85;100899.28;5051183;28;20102;-68
2023/04/11 00:19:56;;;;;;;26.73;3.30;;;;;;;14.54;66.96;100889.50;5050761;28;20040;-68
2023/04/11 00:22:23;;;;;;;36.33;5.07;;;;;;;14.39;66.98;100899.50;5050593;28;20017;-68
2023/04/11 00:24:49;;;;;;;24.60;4.60;;;;;;;15.56;63.08;100897.25;5050275;28;20033;-69
2023/04/11 00:27:14;;;;;;;29.10;3.90;;;;;;;14.17;68.57;100888.66;5051786;28;20033;-68
2023/04/11 00:29:40;;;;;;;36.67;4.73;;;;;;;15.30;62.29;100890.13;5051409;28;20469;-68
2023/04/11 00:32:05;;;;;;;29.83;4.53;;;;;;;15.03;63.60;100889.97;5051723;28;20104;-68
2023/04/11 00:34:31;;;;;;;25.67;3.90;;;;;;;15.49;62.00;100895.72;5050589;28;20028;-69
2023/04/11 00:36:56;;;;;;;28.93;3.87;;;;;;;13.95;68.52;100906.69;5050160;28;20376;-68
2023/04/11 00:39:21;;;;;;;39.83;4.20;;;;;;;14.90;64.39;100897.38;5050175;28;20017;-68
2023/04/11 00:41:47;;;;;;;35.13;4.60;;;;;;;15.46;61.24;100898.47;5050660;28;20057;-68
2023/04/11 00:44:13;;;;;;;22.83;3.50;;;;;;;14.13;67.16;100909.78;5051016;28;20844;-68
2023/04/11 00:46:42;;;;;;;26.93;3.73;;;;;;;14.95;62.72;100911.28;5051910;28;20067;-68
2023/04/11 00:49:09;;;;;;;29.30;3.87;;;;;;;14.10;65.65;100907.25;5050076;28;20021;-69
2023/04/11 00:51:34;;;;;;;21.07;3.30;;;;;;;14.70;64.01;100914.56;5049490;28;20572;-68
2023/04/11 00:54:00;;;;;;;27.27;4.53;;;;;;;15.33;60.81;100911.09;5050502;28;20111;-68
2023/04/11 00:56:26;;;;;;;32.33;3.90;;;;;;;15.35;60.23;100909.31;5051274;28;20108;-68
2023/04/11 00:58:52;;;;;;;31.27;4.07;;;;;;;15.13;63.82;100909.03;5050874;28;20047;-68
2023/04/11 01:01:18;;;;;;;24.13;3.73;;;;;;;15.01;63.22;100908.44;5051253;28;20508;-68
2023/04/11 01:03:44;;;;;;;19.80;2.53;;;;;;;14.55;62.94;100912.28;5050238;28;20520;-68
2023/04/11 01:06:13;;;;;;;46.30;5.53;;;;;;;15.45;59.13;100916.00;5050436;28;20025;-69
2023/04/11 01:08:42;;;;;;;29.47;5.03;;;;;;;15.40;60.96;100908.25;5050092;28;20546;-68
2023/04/11 01:11:09;;;;;;;23.07;3.07;;;;;;;14.99;62.94;100902.38;5049620;28;20020;-69
2023/04/11 01:13:38;;;;;;;20.20;3.03;;;;;;;14.49;62.59;100913.28;5050690;28;20492;-68
2023/04/11 01:16:08;;;;;;;17.27;2.97;;;;;;;14.40;63.40;100905.63;5050023;28;20397;-68
2023/04/11 01:18:35;;;;;;;11.93;1.83;;;;;;;14.61;60.32;100912.13;5049934;28;20021;-68
2023/04/11 01:21:00;;;;;;;23.03;2.80;;;;;;;14.98;60.78;100910.31;5049274;28;20101;-69
2023/04/11 01:23:26;;;;;;;23.23;2.93;;;;;;;14.64;58.58;100917.31;5049543;28;20539;-68
2023/04/11 01:25:52;;;;;;;18.87;3.50;;;;;;;14.88;58.29;100910.56;5049201;28;20029;-68
2023/04/11 01:28:18;;;;;;;21.33;2.30;;;;;;;15.04;58.64;100924.19;5049508;28;20029;-68
2023/04/11 01:30:44;;;;;;;27.10;4.67;;;;;;;14.73;57.56;100917.09;5049652;28;20499;-68
2023/04/11 01:33:10;;;;;;;9.57;1.67;;;;;;;14.27;58.89;100920.84;5048367;28;20028;-68
2023/04/11 01:35:36;;;;;;;11.37;1.87;;;;;;;14.63;55.42;100925.25;5051131;28;20448;-68
2023/04/11 01:38:06;;;;;;;13.17;1.97;;;;;;;14.27;56.60;100912.94;5049669;28;20060;-69
2023/04/11 01:40:32;;;;;;;15.23;1.83;;;;;;;14.64;55.36;100927.84;5050628;28;20033;-68
2023/04/11 01:42:58;;;;;;;19.60;2.50;;;;;;;14.98;53.65;100926.97;5051087;28;20032;-68
2023/04/11 01:45:28;;;;;;;10.63;1.70;;;;;;;14.92;53.90;100932.41;5049011;28;20035;-69
2023/04/11 01:47:53;;;;;;;21.73;2.97;;;;;;;14.66;54.34;100926.06;5048673;28;20029;-69
2023/04/11 01:50:19;;;;;;;15.67;2.60;;;;;;;14.56;55.42;100935.03;5048811;28;20024;-68
2023/04/11 01:52:45;;;;;;;22.70;2.47;;;;;;;14.99;53.79;100933.09;5049168;28;20082;-69
2023/04/11 01:55:10;;;;;;;7.60;1.77;;;;;;;14.20;55.82;100941.13;5048080;28;20112;-69
2023/04/11 01:57:36;;;;;;;15.50;1.90;;;;;;;14.48;56.02;100937.00;5049211;28;20025;-68
2023/04/11 02:00:04;;;;;;;16.10;1.80;;;;;;;15.23;53.23;100942.09;5050832;28;20075;-68
2023/04/11 02:02:30;;;;;;;11.80;2.17;;;;;;;14.95;53.72;100953.38;5048501;28;20401;-69
2023/04/11 02:04:55;;;;;;;13.30;2.27;;;;;;;14.85;53.61;100965.03;5049138;28;20039;-69
2023/04/11 02:07:20;;;;;;;15.30;1.73;;;;;;;14.70;54.33;100956.66;5049993;28;20033;-68
2023/04/11 02:09:46;;;;;;;12.20;2.13;;;;;;;15.15;53.44;100954.59;5048258;28;20043;-68
2023/04/11 02:12:11;;;;;;;14.00;1.97;;;;;;;14.32;55.71;100958.41;5048660;28;20029;-68
2023/04/11 02:14:41;;;;;;;8.43;1.50;;;;;;;14.02;55.16;100963.47;5048910;28;20481;-69
2023/04/11 02:17:08;;;;;;;12.00;2.13;;;;;;;14.50;54.34;100966.75;5047875;28;20638;-68
2023/04/11 02:19:35;;;;;;;12.90;1.80;;;;;;;14.08;56.52;100965.97;5048889;28;20063;-68
2023/04/11 02:22:01;;;;;;;13.57;1.80;;;;;;;15.21;53.67;100965.00;5050320;28;20551;-68
2023/04/11 02:24:29;;;;;;;20.17;1.90;;;;;;;14.81;53.88;100960.75;5048923;28;20052;-69
2023/04/11 02:26:55;;;;;;;13.03;2.10;;;;;;;13.60;57.68;100974.00;5048641;28;20111;-68
2023/04/11 02:29:20;;;;;;;14.30;2.27;;;;;;;14.61;55.74;100964.72;5047608;28;20546;-68
2023/04/11 02:31:49;;;;;;;14.57;2.07;;;;;;;13.62;58.59;100981.84;5048466;28;20060;-68
2023/04/11 02:34:14;;;;;;;10.30;1.77;;;;;;;14.62;55.01;100965.56;5048162;28;20032;-69
2023/04/11 02:36:41;;;;;;;14.57;1.70;;;;;;;14.39;55.10;100972.28;5047753;28;20021;-69
2023/04/11 02:39:06;;;;;;;11.50;1.77;;;;;;;15.01;54.04;100984.78;5047573;28;20101;-68
2023/04/11 02:41:32;;;;;;;11.47;2.10;;;;;;;14.36;56.01;100983.72;5049875;28;20049;-69
2023/04/11 02:43:57;;;;;;;17.37;2.13;;;;;;;13.85;58.43;100984.00;5048990;28;20020;-69
2023/04/11 02:46:23;;;;;;;18.70;2.43;;;;;;;14.04;56.23;100977.44;5049269;28;20573;-69
2023/04/11 02:48:48;;;;;;;10.37;2.03;;;;;;;13.53;59.02;100982.88;5048244;28;20025;-69
2023/04/11 02:51:14;;;;;;;10.77;2.77;;;;;;;13.73;58.08;100985.97;5048327;28;20432;-69
2023/04/11 02:53:40;;;;;;;13.23;2.23;;;;;;;14.07;57.00;100977.38;5049530;28;20118;-69
2023/04/11 02:56:09;;;;;;;16.77;1.93;;;;;;;14.50;54.72;100999.19;5047657;28;20480;-69
2023/04/11 02:58:37;;;;;;;15.90;1.90;;;;;;;14.57;55.95;100989.38;5047661;28;20017;-69
2023/04/11 03:01:05;;;;;;;22.47;1.93;;;;;;;14.55;56.84;100988.56;5049671;28;20071;-69
2023/04/11 03:03:30;;;;;;;15.07;1.93;;;;;;;14.24;56.55;100990.13;5049616;28;20025;-69
2023/04/11 03:05:56;;;;;;;11.60;1.87;;;;;;;13.60;57.12;101002.91;5047600;28;20025;-69
2023/04/11 03:08:21;;;;;;;11.30;1.90;;;;;;;13.32;59.14;101000.75;5047761;28;20032;-68
2023/04/11 03:10:47;;;;;;;24.53;2.43;;;;;;;14.26;55.92;100995.38;5047998;28;20368;-68
2023/04/11 03:13:12;;;;;;;16.43;2.00;;;;;;;14.19;54.68;100993.75;5046858;28;20477;-69
2023/04/11 03:15:37;;;;;;;14.50;1.70;;;;;;;13.37;58.01;101009.44;5048044;28;20036;-69
2023/04/11 03:18:06;;;;;;;10.00;2.07;;;;;;;13.93;56.71;100999.59;5048074;28;20031;-69
2023/04/11 03:20:31;;;;;;;12.93;1.80;;;;;;;13.46;57.64;101007.53;5048899;28;20036;-69
2023/04/11 03:22:57;;;;;;;17.00;1.90;;;;;;;13.54;57.12;101005.63;5047982;28;20038;-69
2023/04/11 03:25:22;;;;;;;15.17;1.90;;;;;;;13.60;57.17;101015.13;5048478;28;20025;-68
2023/04/11 03:27:47;;;;;;;13.30;2.30;;;;;;;13.01;59.88;101017.06;5047908;28;20048;-68
2023/04/11 03:30:13;;;;;;;8.23;1.23;;;;;;;13.83;56.48;101017.31;5047567;28;20807;-68
2023/04/11 03:32:38;;;;;;;14.37;2.17;;;;;;;13.86;56.94;101019.88;5047089;28;20083;-68
2023/04/11 03:35:04;;;;;;;13.80;2.60;;;;;;;13.47;58.69;101040.78;5047758;28;20036;-68
2023/04/11 03:37:30;;;;;;;19.67;3.33;;;;;;;14.06;55.77;101036.09;5049429;28;20040;-68
2023/04/11 03:39:55;;;;;;;7.77;1.40;;;;;;;14.01;54.88;101027.44;5047145;28;20017;-68
2023/04/11 03:42:21;;;;;;;13.63;1.63;;;;;;;13.51;55.69;101040.69;5048799;28;20046;-68
2023/04/11 03:44:46;;;;;;;9.87;1.60;;;;;;;13.63;55.70;101031.72;5049265;28;20028;-68
2023/04/11 03:47:12;;;;;;;11.13;1.67;;;;;;;13.63;54.26;101030.84;5046764;28;20025;-68
2023/04/11 03:49:37;;;;;;;16.43;2.53;;;;;;;12.96;54.42;101034.63;5047709;28;20031;-69
2023/04/11 03:52:08;;;;;;;4.90;1.03;;;;;;;12.94;55.21;101025.94;5051851;28;20041;-68
2023/04/11 03:54:34;;;;;;;9.77;1.50;;;;;;;13.24;54.46;101044.66;5050686;28;20029;-68
2023/04/11 03:56:59;;;;;;;13.97;1.77;;;;;;;13.97;52.71;101049.44;5051626;28;20534;-69
2023/04/11 03:59:25;;;;;;;5.27;1.30;;;;;;;13.93;51.79;101060.03;5051227;28;20016;-69
2023/04/11 04:01:50;;;;;;;16.50;1.77;;;;;;;13.13;53.87;101057.94;5052047;28;20057;-68
2023/04/11 04:04:16;;;;;;;10.37;1.27;;;;;;;12.63;54.61;101055.25;5052823;28;20064;-68
2023/04/11 04:06:41;;;;;;;11.57;1.93;;;;;;;13.64;52.88;101067.59;5051404;28;20028;-68
2023/04/11 04:09:07;;;;;;;13.80;1.50;;;;;;;14.12;50.78;101069.25;5050099;28;20022;-68
2023/04/11 04:11:32;;;;;;;10.27;1.40;;;;;;;13.55;52.04;101071.25;5051094;28;20493;-69
2023/04/11 04:13:57;;;;;;;13.33;1.43;;;;;;;14.10;50.31;101071.06;5052538;28;20485;-68
2023/04/11 04:16:23;;;;;;;6.70;1.00;;;;;;;14.00;50.19;101072.13;5051442;28;20610;-68
2023/04/11 04:18:48;;;;;;;14.87;2.03;;;;;;;14.46;49.55;101075.56;5051347;28;20025;-68
2023/04/11 04:21:14;;;;;;;10.07;1.67;;;;;;;13.66;50.77;101072.81;5050521;28;20106;-68
2023/04/11 04:23:46;;;;;;;10.03;1.33;;;;;;;13.30;51.04;101078.69;5051561;28;20021;-69
2023/04/11 04:26:23;;;;;;;10.93;1.20;;;;;;;12.85;52.19;101083.78;5050386;28;20116;-68
2023/04/11 04:28:49;;;;;;;12.27;1.50;;;;;;;12.72;52.47;101078.72;5050103;28;20020;-69
2023/04/11 04:31:20;;;;;;;6.13;0.90;;;;;;;13.38;51.46;101082.06;5050167;28;20549;-69
2023/04/11 04:33:48;;;;;;;9.55;2.20;;;;;;;13.94;50.26;101081.00;5050876;28;20060;-68
2023/04/11 04:36:16;;;;;;;10.80;1.40;;;;;;;13.77;49.94;101086.59;5049724;28;20025;-68
2023/04/11 04:38:42;;;;;;;7.47;0.90;;;;;;;12.47;53.98;101093.06;5052231;28;20397;-68
2023/04/11 04:41:14;;;;;;;8.67;1.87;;;;;;;13.10;52.48;101091.28;5050104;28;20036;-68
2023/04/11 04:43:41;;;;;;;8.90;1.43;;;;;;;13.62;51.73;101103.53;5051367;28;20124;-70
2023/04/11 04:46:07;;;;;;;7.37;1.10;;;;;;;12.93;53.82;101095.03;5049995;28;20037;-68
2023/04/11 04:48:32;;;;;;;16.10;1.53;;;;;;;13.05;53.28;101096.56;5050443;28;20066;-68
2023/04/11 04:50:57;;;;;;;9.33;1.60;;;;;;;13.27;52.70;101107.63;5049684;28;20053;-68
2023/04/11 04:53:23;;;;;;;9.97;1.57;;;;;;;13.42;52.50;101105.63;5050089;28;20103;-69
2023/04/11 04:55:48;;;;;;;12.73;2.30;;;;;;;13.43;52.89;101102.13;5051965;28;20025;-68
2023/04/11 04:58:14;;;;;;;13.70;1.27;;;;;;;13.10;53.05;101114.88;5050713;28;20086;-69
2023/04/11 05:00:40;;;;;;;9.07;1.40;;;;;;;13.17;55.24;101116.50;5050273;28;20035;-69
2023/04/11 05:03:07;;;;;;;16.20;2.80;;;;;;;13.29;53.09;101116.31;5049514;28;20025;-69
2023/04/11 05:05:32;;;;;;;8.07;1.33;;;;;;;13.79;52.94;101125.97;5051059;28;20024;-69
2023/04/11 05:07:58;;;;;;;6.43;1.30;;;;;;;13.25;54.13;101130.38;5051623;28;20481;-68
2023/04/11 05:10:23;;;;;;;8.13;2.00;;;;;;;13.89;52.94;101124.94;5049794;28;20076;-69
2023/04/11 05:12:49;;;;;;;14.80;1.90;;;;;;;13.84;54.27;101130.25;5049240;28;20119;-68
2023/04/11 05:15:14;;;;;;;9.20;1.60;;;;;;;13.67;54.37;101133.19;5049645;28;20025;-68
2023/04/11 05:17:39;;;;;;;13.50;1.93;;;;;;;14.08;53.13;101134.19;5051419;28;20037;-68
2023/04/11 05:20:07;;;;;;;11.53;2.13;;;;;;;13.51;54.93;101131.75;5050201;28;20435;-69
2023/04/11 05:22:33;;;;;;;10.60;2.10;;;;;;;13.74;54.52;101137.44;5051282;28;20112;-69
2023/04/11 05:24:59;;;;;;;11.87;2.10;;;;;;;13.66;54.88;101141.97;5050602;28;20108;-68
2023/04/11 05:27:26;;;;;;;16.43;2.50;;;;;;;13.83;54.44;101148.69;5050808;28;20021;-68
2023/04/11 05:29:53;;;;;;;12.83;1.77;;;;;;;14.47;53.64;101145.69;5051166;28;20029;-71
2023/04/11 05:32:18;;;;;;;15.77;2.03;;;;;;;14.52;53.21;101149.06;5048423;28;20029;-70
2023/04/11 05:34:54;;;;;;;9.60;2.27;;;;;;;14.23;53.70;101142.63;5051142;28;20036;-70
2023/04/11 05:37:19;;;;;;;11.07;1.77;;;;;;;14.29;53.07;101152.16;5050860;28;20029;-68
2023/04/11 05:39:45;;;;;;;15.47;2.30;;;;;;;14.16;54.82;101162.06;5050363;28;20118;-68
2023/04/11 05:42:10;;;;;;;11.87;1.87;;;;;;;14.49;52.54;101159.66;5050367;28;20021;-67
2023/04/11 05:44:36;;;;;;;15.30;2.80;;;;;;;13.90;55.79;101160.81;5049476;28;20546;-67
2023/04/11 05:47:01;;;;;;;16.87;2.77;;;;;;;14.17;55.57;101169.06;5050088;28;20099;-68
2023/04/11 05:49:27;;;;;;;11.77;2.00;;;;;;;14.60;53.14;101162.91;5048937;28;20501;-67
2023/04/11 05:51:52;;;;;;;13.37;1.83;;;;;;;14.88;52.36;101178.16;5050400;28;20562;-67
2023/04/11 05:54:31;;;;;;;17.87;2.43;;;;;;;14.56;53.45;101177.03;5049908;28;20036;-70
2023/04/11 05:56:56;;;;;;;21.10;2.53;;;;;;;14.04;52.67;101185.06;5049534;28;20432;-70
2023/04/11 05:59:22;;;;;;;10.37;2.13;;;;;;;13.80;53.89;101181.13;5048731;28;20064;-70
2023/04/11 06:01:49;;;;;;;11.40;2.10;;;;;;;14.65;52.17;101186.53;5048366;28;20040;-69
2023/04/11 06:04:15;;;;;;;11.33;1.47;;;;;;;13.94;53.01;101180.88;5048681;28;20577;-69
2023/04/11 06:06:42;;;;;;;13.70;1.87;;;;;;;13.82;54.15;101179.34;5048912;28;20032;-69
2023/04/11 06:09:08;;;;;;;16.13;2.23;;;;;;;13.86;54.17;101188.03;5047916;28;20025;-69
2023/04/11 06:11:34;;;;;;;15.77;1.73;;;;;;;14.04;52.33;101192.97;5050248;28;20689;-68
2023/04/11 06:13:59;;;;;;;13.43;2.03;;;;;;;14.21;52.14;101202.28;5049431;28;20104;-69
2023/04/11 06:16:25;;;;;;;10.17;2.10;;;;;;;13.76;52.99;101204.88;5047780;28;20028;-69
2023/04/11 06:18:50;;;;;;;12.33;1.63;;;;;;;13.56;54.14;101208.69;5050448;28;20060;-69
2023/04/11 06:21:15;;;;;;;14.67;1.87;;;;;;;14.23;52.80;101205.75;5049005;28;20024;-69
2023/04/11 06:23:41;;;;;;;12.70;2.13;;;;;;;13.44;53.65;101208.91;5050088;28;20029;-68
2023/04/11 06:26:06;;;;;;;16.57;2.17;;;;;;;13.66;53.01;101207.63;5048259;28;20413;-69
2023/04/11 06:28:31;;;;;;;16.43;2.13;;;;;;;13.85;52.84;101204.72;5047831;28;20028;-68
2023/04/11 06:30:57;;;;;;;18.23;2.30;;;;;;;14.19;51.37;101209.31;5048784;28;20127;-68
2023/04/11 06:33:22;;;;;;;8.93;1.90;;;;;;;14.99;49.36;101210.34;5047963;28;20182;-69
2023/04/11 06:35:48;;;;;;;15.27;2.27;;;;;;;14.41;50.72;101200.13;5049724;28;20095;-69
2023/04/11 06:38:13;;;;;;;15.03;2.43;;;;;;;14.39;50.27;101212.44;5049323;28;20154;-68
2023/04/11 06:40:38;;;;;;;17.40;3.07;;;;;;;14.22;50.99;101219.81;5048427;28;20036;-69
2023/04/11 06:43:04;;;;;;;12.47;2.10;;;;;;;14.68;51.06;101207.50;5047234;28;20393;-69
2023/04/11 06:45:29;;;;;;;14.73;3.13;;;;;;;15.05;49.88;101218.09;5048332;28;20059;-69
2023/04/11 06:47:55;;;;;;;12.00;1.73;;;;;;;14.41;50.03;101220.28;5048289;28;20036;-69
2023/04/11 06:50:20;;;;;;;11.50;1.80;;;;;;;14.25;51.43;101217.09;5046957;28;20032;-69
2023/04/11 06:52:46;;;;;;;17.27;2.33;;;;;;;14.40;50.81;101223.84;5049597;28;20074;-69
2023/04/11 06:55:14;;;;;;;10.40;1.57;;;;;;;14.25;50.46;101230.25;5047890;28;20040;-69
2023/04/11 06:57:39;;;;;;;16.60;2.53;;;;;;;14.53;50.07;101234.97;5047609;28;20028;-69
2023/04/11 07:00:07;;;;;;;11.57;1.37;;;;;;;14.73;49.80;101248.63;5047840;28;20040;-70
2023/04/11 07:02:34;;;;;;;22.93;2.30;;;;;;;15.33;48.75;101242.94;5048424;28;20024;-69
2023/04/11 07:05:00;;;;;;;17.20;2.77;;;;;;;14.59;49.27;101251.50;5047830;28;20115;-69
2023/04/11 07:07:26;;;;;;;12.20;1.47;;;;;;;14.39;49.57;101254.50;5047658;28;20052;-69
2023/04/11 07:09:51;;;;;;;13.77;2.00;;;;;;;14.49;48.59;101264.84;5049601;28;20481;-69
2023/04/11 07:12:17;;;;;;;9.93;2.00;;;;;;;14.66;48.71;101256.66;5046675;28;20029;-69
2023/04/11 07:14:42;;;;;;;12.50;2.17;;;;;;;14.98;47.09;101252.50;5048341;28;20033;-69
2023/04/11 07:17:08;;;;;;;15.50;2.23;;;;;;;14.70;47.50;101264.47;5048925;28;20033;-69
2023/04/11 07:19:33;;;;;;;15.17;1.70;;;;;;;15.56;46.88;101268.72;5047581;28;20044;-69
2023/04/11 07:21:59;;;;;;;12.63;1.90;;;;;;;14.74;46.59;101279.28;5048054;28;20025;-69
2023/04/11 07:24:24;;;;;;;11.03;1.40;;;;;;;14.98;47.07;101279.69;5049413;28;20060;-69
2023/04/11 07:26:52;;;;;;;12.57;1.67;;;;;;;14.85;46.09;101286.97;5051244;28;20496;-69
2023/04/11 07:29:17;;;;;;;11.43;2.20;;;;;;;15.60;45.16;101278.28;5051503;28;20035;-69
2023/04/11 07:31:43;;;;;;;11.57;1.43;;;;;;;15.38;45.32;101273.53;5052839;28;20499;-69
2023/04/11 07:34:09;;;;;;;8.13;1.33;;;;;;;15.82;44.77;101285.72;5052890;28;20037;-70
2023/04/11 07:36:35;;;;;;;14.47;2.27;;;;;;;15.36;45.05;101296.41;5053200;28;20442;-69
2023/04/11 07:39:03;;;;;;;12.93;2.53;;;;;;;15.73;44.73;101292.03;5052470;28;20025;-69
2023/04/11 07:41:28;;;;;;;12.57;1.80;;;;;;;16.17;44.06;101291.84;5051279;28;20040;-70
2023/04/11 07:43:53;;;;;;;13.47;1.60;;;;;;;15.44;43.62;101294.47;5051492;28;20405;-69
2023/04/11 07:46:19;;;;;;;11.07;1.50;;;;;;;14.90;44.96;101286.88;5052006;28;20124;-69
2023/04/11 07:48:44;;;;;;;20.20;1.60;;;;;;;15.50;44.62;101292.59;5051822;28;20024;-70
2023/04/11 07:51:10;;;;;;;8.77;1.70;;;;;;;15.13;44.29;101293.44;5050991;28;20045;-69
2023/04/11 07:53:36;;;;;;;9.90;2.17;;;;;;;14.72;45.41;101294.22;5050847;28;20057;-70
2023/04/11 07:56:01;;;;;;;16.30;1.97;;;;;;;16.69;43.00;101279.00;5052706;28;20036;-69
2023/04/11 07:58:27;;;;;;;7.70;1.60;;;;;;;15.58;44.28;101301.19;5052406;28;20496;-69
2023/04/11 08:00:52;;;;;;;14.23;1.93;;;;;;;16.30;43.35;101284.50;5050775;28;20405;-70
2023/04/11 08:03:18;;;;;;;12.60;1.87;;;;;;;17.42;40.82;101289.19;5050820;28;20039;-69
2023/04/11 08:05:43;;;;;;;14.13;2.17;;;;;;;17.20;40.62;101293.41;5052556;28;20136;-69
2023/04/11 08:08:08;;;;;;;12.33;3.07;;;;;;;16.30;41.72;101306.47;5050015;28;20471;-69
2023/04/11 08:10:34;;;;;;;8.73;1.63;;;;;;;17.17;40.72;101309.34;5051260;28;20055;-68
2023/04/11 08:12:59;;;;;;;14.00;1.58;;;;;;;19.52;36.60;101298.59;5052455;28;20056;-69
2023/04/11 08:15:25;;;;;;;16.80;1.90;;;;;;;18.24;38.88;101305.03;5051408;28;20473;-70
2023/04/11 08:17:54;;;;;;;28.60;4.13;;;;;;;17.01;40.85;101315.09;5051116;28;20067;-70
2023/04/11 08:20:20;;;;;;;10.07;1.57;;;;;;;15.76;41.96;101321.81;5051988;28;20055;-69
2023/04/11 08:22:45;;;;;;;13.20;1.90;;;;;;;14.89;44.10;101328.13;5051639;28;20427;-70
2023/04/11 08:25:12;;;;;;;15.47;1.50;;;;;;;17.45;40.57;101328.72;5050397;28;20024;-70
2023/04/11 08:27:38;;;;;;;11.67;2.00;;;;;;;17.28;38.93;101325.72;5050926;28;20032;-69
2023/04/11 08:30:07;;;;;;;11.87;1.83;;;;;;;17.56;38.05;101335.47;5051475;28;20029;-70
2023/04/11 08:32:36;;;;;;;10.00;2.38;;;;;;;17.61;37.17;101334.41;5051021;28;20476;-70
2023/04/11 08:35:02;;;;;;;12.05;1.67;;;;;;;16.35;40.11;101349.41;5051320;28;20025;-70
2023/04/11 08:37:28;;;;;;;11.55;2.28;;;;;;;17.32;38.71;101335.28;5049587;28;20020;-70
2023/04/11 08:39:53;;;;;;;6.57;1.10;;;;;;;16.75;39.84;101335.13;5050459;28;20064;-69
2023/04/11 08:42:26;;;;;;;11.67;1.60;;;;;;;15.50;42.22;101355.81;5050787;28;20060;-70
2023/04/11 08:44:57;;;;;;;9.80;1.48;;;;;;;15.63;41.54;101359.91;5051941;28;20459;-70
2023/04/11 08:47:23;;;;;;;12.83;2.17;;;;;;;17.83;38.11;101346.06;5051535;28;20098;-70
2023/04/11 08:49:49;;;;;;;8.25;1.42;;;;;;;18.86;36.51;101344.34;5049457;28;20575;-70
2023/04/11 08:52:16;;;;;;;8.75;1.60;;;;;;;19.67;33.88;101351.00;5051058;28;20052;-69
2023/04/11 08:54:41;;;;;;;8.43;1.40;;;;;;;17.94;35.79;101359.84;5050240;28;20029;-70
2023/04/11 08:57:06;;;;;;;10.23;1.40;;;;;;;17.41;34.54;101353.53;5049112;28;20027;-68
2023/04/11 08:59:32;;;;;;;6.45;0.93;;;;;;;17.03;36.45;101354.66;5050079;28;20021;-67
2023/04/11 09:02:08;;;;;;;12.90;2.35;;;;;;;17.93;34.73;101358.13;5050119;28;20021;-68
2023/04/11 09:04:41;;;;;;;10.23;1.60;;;;;;;17.67;34.90;101346.56;5049390;28;20040;-69
2023/04/11 09:07:07;;;;;;;4.63;1.73;;;;;;;17.48;35.36;101350.72;5051128;28;20032;-68
2023/04/11 09:09:36;;;;;;;6.57;1.23;;;;;;;19.32;33.38;101347.97;5050176;28;20369;-69
2023/04/11 09:12:03;;;;;;;11.55;1.10;;;;;;;18.77;32.98;101351.72;5049370;28;20117;-68
2023/04/11 09:14:29;;;;;;;5.95;1.10;;;;;;;19.34;31.74;101351.41;5049294;28;20036;-69
2023/04/11 09:17:00;;;;;;;7.97;1.20;;;;;;;18.70;32.46;101366.09;5051145;28;20067;-68
2023/04/11 09:19:27;;;;;;;6.70;1.00;;;;;;;19.67;31.09;101364.25;5050070;28;20029;-69
2023/04/11 09:21:55;;;;;;;7.70;1.27;;;;;;;19.99;31.13;101380.72;5049585;28;20465;-68
2023/04/11 09:24:21;;;;;;;9.70;1.20;;;;;;;19.69;31.83;101375.69;5048481;28;20028;-68
2023/04/11 09:26:47;;;;;;;7.70;1.17;;;;;;;18.77;32.34;101380.84;5049695;28;20052;-68
2023/04/11 09:29:39;;;;;;;7.65;1.60;;;;;;;18.26;32.54;101376.44;5050674;28;20476;-69
2023/04/11 09:32:05;;;;;;;8.43;1.40;;;;;;;20.54;29.70;101358.06;5049663;28;20031;-69
2023/04/11 09:34:33;;;;;;;10.40;1.20;;;;;;;19.42;30.42;101367.88;5050837;28;20025;-68
2023/04/11 09:37:00;;;;;;;15.82;1.85;;;;;;;18.37;32.37;101363.72;5049341;28;20082;-68
2023/04/11 09:39:28;;;;;;;5.80;0.85;;;;;;;18.93;31.49;101369.72;5048261;28;20055;-69
2023/04/11 09:41:53;;;;;;;8.73;1.65;;;;;;;18.23;32.47;101381.81;5050650;28;20024;-69
2023/04/11 09:44:20;;;;;;;6.72;1.27;;;;;;;17.96;32.41;101380.03;5049913;28;20028;-69
2023/04/11 09:46:56;;;;;;;6.55;1.42;;;;;;;20.14;31.34;101380.09;5049939;28;20086;-69
2023/04/11 09:49:22;;;;;;;6.38;1.10;;;;;;;18.55;32.73;101382.53;5050286;28;20362;-68
2023/04/11 09:51:48;;;;;;;8.10;1.33;;;;;;;17.48;34.30;101377.13;5048975;28;20080;-69
2023/04/11 09:54:14;;;;;;;10.77;1.55;;;;;;;19.08;32.49;101384.19;5049447;28;20087;-68
2023/04/11 09:56:41;;;;;;;11.93;1.55;;;;;;;18.74;31.93;101388.00;5050501;28;20060;-69
2023/04/11 09:59:07;;;;;;;9.32;1.75;;;;;;;18.53;32.24;101379.06;5048552;28;20048;-69
2023/04/11 10:01:32;;;;;;;7.53;1.38;;;;;;;19.18;31.75;101367.03;5050273;28;20025;-69
2023/04/11 10:03:59;;;;;;;12.30;1.95;;;;;;;20.10;30.82;101373.19;5049016;28;20507;-69
2023/04/11 10:06:56;;;;;;;10.85;1.50;;;;;;;21.19;29.45;101364.91;5049391;28;20517;-69
2023/04/11 10:09:22;;;;;;;9.60;1.27;;;;;;;20.13;30.57;101373.03;5037536;28;20041;-69
2023/04/11 10:11:48;;;;;;;9.02;1.50;;;;;;;20.72;29.80;101375.00;5050770;28;20031;-69
2023/04/11 10:14:35;;;;;;;7.32;1.85;;;;;;;18.66;32.50;101377.72;5048866;28;20063;-70
2023/04/11 10:17:15;;;;;;;9.75;1.75;;;;;;;20.33;31.02;101366.91;5050422;28;20075;-69
2023/04/11 10:19:41;;;;;;;8.35;1.63;;;;;;;19.67;30.80;101375.75;5050287;28;20025;-70
2023/04/11 10:22:07;;;;;;;6.78;1.50;;;;;;;21.32;29.54;101380.28;5047719;28;20060;-69
2023/04/11 10:24:32;;;;;;;9.80;1.77;;;;;;;20.72;30.25;101382.97;5048785;28;20103;-69
2023/04/11 10:27:02;;;;;;;4.95;1.50;;;;;;;19.49;30.81;101398.53;5048826;28;20095;-69
2023/04/11 10:29:39;;;;;;;10.63;1.83;;;;;;;19.23;31.61;101402.16;5047807;28;20066;-69
2023/04/11 10:32:11;;;;;;;11.38;1.48;;;;;;;18.44;31.58;101374.97;5048241;28;20032;-69
2023/04/11 10:34:57;;;;;;;6.22;1.23;;;;;;;20.38;30.47;101377.31;5049648;28;20029;-68
2023/04/11 10:37:29;;;;;;;7.35;1.25;;;;;;;20.34;30.39;101375.72;5039094;28;20511;-69
2023/04/11 10:39:59;;;;;;;7.88;1.80;;;;;;;19.66;30.42;101375.81;5049938;28;20032;-68
2023/04/11 10:42:28;;;;;;;9.18;1.40;;;;;;;19.96;30.34;101387.00;5047723;28;20033;-69
2023/04/11 10:45:13;;;;;;;11.60;1.67;;;;;;;19.33;31.76;101378.84;5049766;28;20025;-69
2023/04/11 10:47:39;;;;;;;5.95;1.20;;;;;;;19.98;30.78;101378.97;5048675;28;20036;-68
2023/04/11 10:50:22;;;;;;;9.15;1.63;;;;;;;21.94;29.43;101364.06;5047097;28;20025;-69
2023/04/11 10:52:48;;;;;;;7.78;1.40;;;;;;;20.68;29.94;101387.59;5048316;28;20052;-69
2023/04/11 10:55:18;;;;;;;8.23;1.60;;;;;;;19.47;32.63;101378.31;5047772;28;20045;-69
2023/04/11 10:58:07;;;;;;;9.90;2.17;;;;;;;20.09;31.45;101371.44;5047730;28;20045;-69
2023/04/11 11:03:18;;;;;;;14.55;1.67;;;;;;;20.07;30.81;101383.03;5048411;28;20033;-69
2023/04/11 11:05:43;;;;;;;6.95;1.20;;;;;;;19.58;31.03;101378.75;5048434;28;20035;-68
2023/04/11 11:08:09;;;;;;;6.82;1.30;;;;;;;18.62;33.53;101389.34;5049159;28;20103;-68
2023/04/11 11:10:39;;;;;;;8.77;1.50;;;;;;;18.64;31.33;101385.72;5047488;28;20451;-69
2023/04/11 11:13:05;;;;;;;9.75;1.88;;;;;;;19.09;32.60;101384.13;5047534;28;20036;-70
2023/04/11 11:15:36;;;;;;;9.43;2.08;;;;;;;20.41;30.50;101379.84;5049436;28;20031;-69
2023/04/11 11:18:06;;;;;;;5.00;1.73;;;;;;;22.34;29.79;101370.09;5049198;28;20109;-69
2023/04/11 11:20:33;;;;;;;8.60;1.88;;;;;;;22.74;28.97;101373.34;5049437;28;20355;-69